Time;durP1;ratioP1;P1;durP2;ratioP2;P2;SDS_P1;SDS_P2;PMS_P1;PMS_P2;Temp;Humidity;BMP_temperature;BMP_pressure;BME280_temperature;BME280_humidity;BME280_pressure;Samples;Min_cycle;Max_cycle;Signal;HPM_P1;HPM_P2
2023/12/09 00:02:14;;;;;;;188.37;56.17;;;;;;;;;;4978434;28;20192;-43
2023/12/09 00:04:40;;;;;;;186.37;53.50;;;;;;;;;;4977213;28;20465;-43
2023/12/09 00:07:06;;;;;;;188.57;54.40;;;;;;;;;;4982614;28;20428;-43
2023/12/09 00:09:32;;;;;;;189.07;56.00;;;;;;;;;;4983820;28;20431;-43
2023/12/09 00:11:58;;;;;;;190.60;56.65;;;;;;;;;;4981571;28;20466;-44
2023/12/09 00:14:24;;;;;;;189.87;54.07;;;;;;;;;;4983704;28;20220;-43
2023/12/09 00:16:50;;;;;;;187.80;52.87;;;;;;;;;;4982791;28;20415;-44
2023/12/09 00:19:16;;;;;;;188.17;52.23;;;;;;;;;;4976638;28;20470;-43
2023/12/09 00:21:42;;;;;;;191.90;54.53;;;;;;;;;;4983942;28;20407;-43
2023/12/09 00:24:08;;;;;;;190.40;53.07;;;;;;;;;;4981641;28;20239;-43
2023/12/09 00:26:34;;;;;;;192.73;54.80;;;;;;;;;;4982410;28;20403;-43
2023/12/09 00:29:00;;;;;;;190.50;52.63;;;;;;;;;;4981156;28;20958;-43
2023/12/09 00:31:26;;;;;;;195.63;57.53;;;;;;;;;;4981897;28;20766;-44
2023/12/09 00:33:52;;;;;;;191.10;53.13;;;;;;;;;;4981221;28;20721;-43
2023/12/09 00:36:18;;;;;;;192.87;55.03;;;;;;;;;;4973694;28;20213;-44
2023/12/09 00:38:44;;;;;;;190.10;52.30;;;;;;;;;;4985072;28;20413;-43
2023/12/09 00:41:10;;;;;;;192.07;54.90;;;;;;;;;;4979893;28;20423;-43
2023/12/09 00:43:36;;;;;;;168.25;51.50;;;;;;;;;;4980361;28;20423;-43
2023/12/09 00:46:02;;;;;;;154.85;52.28;;;;;;;;;;4981217;28;20585;-43
2023/12/09 00:48:28;;;;;;;164.03;56.90;;;;;;;;;;4980246;28;20191;-43
2023/12/09 00:50:54;;;;;;;168.60;51.50;;;;;;;;;;4980481;28;20468;-43
2023/12/09 00:53:19;;;;;;;162.47;51.13;;;;;;;;;;4985813;28;20538;-43
2023/12/09 00:55:45;;;;;;;153.23;49.90;;;;;;;;;;4983556;28;20411;-44
2023/12/09 00:58:11;;;;;;;142.68;50.40;;;;;;;;;;4977962;28;20448;-44
2023/12/09 01:00:37;;;;;;;158.17;49.70;;;;;;;;;;4980005;28;20620;-43
2023/12/09 01:03:03;;;;;;;162.27;50.83;;;;;;;;;;4985227;28;20800;-43
2023/12/09 01:05:29;;;;;;;159.90;50.38;;;;;;;;;;4987166;28;20424;-44
2023/12/09 01:07:55;;;;;;;154.53;48.97;;;;;;;;;;4984751;28;20178;-44
2023/12/09 01:10:21;;;;;;;155.93;49.17;;;;;;;;;;4986961;28;20437;-43
2023/12/09 01:12:47;;;;;;;157.33;50.90;;;;;;;;;;4985475;28;20534;-44
2023/12/09 01:15:14;;;;;;;147.47;48.40;;;;;;;;;;4979768;28;20415;-44
2023/12/09 01:17:40;;;;;;;154.10;48.30;;;;;;;;;;4986925;28;20400;-44
2023/12/09 01:20:06;;;;;;;165.40;51.20;;;;;;;;;;4984209;28;20213;-44
2023/12/09 01:22:33;;;;;;;162.70;50.47;;;;;;;;;;4986946;28;20407;-43
2023/12/09 01:24:59;;;;;;;174.63;53.07;;;;;;;;;;4986165;28;20183;-44
2023/12/09 01:27:25;;;;;;;170.70;50.50;;;;;;;;;;4970699;28;20509;-44
2023/12/09 01:29:51;;;;;;;102.90;43.77;;;;;;;;;;4956029;28;20433;-44
2023/12/09 01:32:17;;;;;;;103.27;42.63;;;;;;;;;;4975301;28;20455;-44
2023/12/09 01:34:44;;;;;;;82.57;33.20;;;;;;;;;;4959271;28;20857;-44
2023/12/09 01:37:10;;;;;;;128.10;46.30;;;;;;;;;;4956472;28;20437;-44
2023/12/09 01:39:38;;;;;;;115.90;43.22;;;;;;;;;;4963582;28;20227;-43
2023/12/09 01:42:04;;;;;;;138.63;47.30;;;;;;;;;;4970606;28;20265;-44
2023/12/09 01:44:30;;;;;;;162.98;50.20;;;;;;;;;;4956294;28;20181;-44
2023/12/09 01:46:56;;;;;;;161.93;49.80;;;;;;;;;;4975139;28;20231;-44
2023/12/09 01:49:22;;;;;;;159.85;49.22;;;;;;;;;;4958789;28;20441;-44
2023/12/09 01:51:48;;;;;;;161.60;50.40;;;;;;;;;;4967304;28;20191;-43
2023/12/09 01:54:14;;;;;;;167.90;53.15;;;;;;;;;;4967028;28;20414;-44
2023/12/09 01:56:40;;;;;;;171.88;53.38;;;;;;;;;;4971716;28;20176;-44
2023/12/09 01:59:06;;;;;;;176.97;53.50;;;;;;;;;;4974365;28;20305;-44
2023/12/09 02:01:35;;;;;;;170.38;51.83;;;;;;;;;;4955128;28;20763;-44
2023/12/09 02:04:01;;;;;;;174.65;52.95;;;;;;;;;;4970568;28;20188;-43
2023/12/09 02:06:27;;;;;;;166.63;51.70;;;;;;;;;;4962614;28;20190;-44
2023/12/09 02:08:54;;;;;;;159.13;49.27;;;;;;;;;;4962723;28;20180;-44
2023/12/09 02:11:31;;;;;;;154.27;48.20;;;;;;;;;;4969762;28;20412;-44
2023/12/09 02:14:08;;;;;;;160.75;50.83;;;;;;;;;;4956355;28;20200;-44
2023/12/09 02:16:46;;;;;;;166.52;50.58;;;;;;;;;;4974769;28;20657;-44
2023/12/09 02:19:13;;;;;;;147.73;47.38;;;;;;;;;;4955005;28;20595;-44
2023/12/09 02:22:02;;;;;;;150.93;48.10;;;;;;;;;;4970900;28;20168;-44
2023/12/09 02:24:28;;;;;;;152.15;49.67;;;;;;;;;;4959470;28;20359;-44
2023/12/09 02:26:56;;;;;;;158.27;49.08;;;;;;;;;;4965945;28;20657;-44
2023/12/09 02:29:23;;;;;;;155.60;48.60;;;;;;;;;;4966773;28;20229;-44
2023/12/09 02:31:52;;;;;;;160.77;49.72;;;;;;;;;;4958101;28;20176;-44
2023/12/09 02:34:19;;;;;;;164.15;50.33;;;;;;;;;;4974142;28;20177;-44
2023/12/09 02:36:46;;;;;;;160.10;49.13;;;;;;;;;;4954926;28;20178;-44
2023/12/09 02:39:13;;;;;;;166.35;51.00;;;;;;;;;;4969884;28;20204;-44
2023/12/09 02:41:40;;;;;;;164.45;49.30;;;;;;;;;;4962303;28;20182;-44
2023/12/09 02:44:07;;;;;;;166.70;50.00;;;;;;;;;;4962420;28;20189;-44
2023/12/09 02:46:33;;;;;;;168.73;52.13;;;;;;;;;;4969847;28;20185;-44
2023/12/09 02:49:00;;;;;;;169.10;49.83;;;;;;;;;;4954384;28;20202;-44
2023/12/09 02:51:26;;;;;;;170.23;50.25;;;;;;;;;;4973956;28;20448;-44
2023/12/09 02:53:54;;;;;;;171.27;51.20;;;;;;;;;;4958155;28;20205;-44
2023/12/09 02:56:20;;;;;;;172.25;51.08;;;;;;;;;;4967949;28;20418;-44
2023/12/09 02:58:46;;;;;;;184.83;53.57;;;;;;;;;;4965507;28;20711;-43
2023/12/09 03:01:11;;;;;;;189.07;54.13;;;;;;;;;;4957908;28;20435;-43
2023/12/09 03:03:37;;;;;;;183.77;52.60;;;;;;;;;;4973538;28;20416;-44
2023/12/09 03:06:03;;;;;;;181.20;53.80;;;;;;;;;;4954785;28;20416;-44
2023/12/09 03:08:29;;;;;;;183.35;57.75;;;;;;;;;;4969131;28;20424;-43
2023/12/09 03:10:55;;;;;;;183.47;52.93;;;;;;;;;;4962215;28;20212;-44
2023/12/09 03:13:21;;;;;;;173.90;52.10;;;;;;;;;;4961200;28;20467;-44
2023/12/09 03:15:47;;;;;;;182.07;51.50;;;;;;;;;;4970065;28;20437;-44
2023/12/09 03:18:13;;;;;;;185.40;52.53;;;;;;;;;;4954121;28;20402;-44
2023/12/09 03:20:39;;;;;;;186.13;51.83;;;;;;;;;;4972031;28;20436;-44
2023/12/09 03:23:05;;;;;;;189.60;53.40;;;;;;;;;;4958542;28;20428;-43
2023/12/09 03:25:32;;;;;;;187.90;53.77;;;;;;;;;;4964528;28;20466;-44
2023/12/09 03:27:58;;;;;;;187.13;53.22;;;;;;;;;;4966878;28;20411;-44
2023/12/09 03:30:24;;;;;;;184.00;51.10;;;;;;;;;;4956199;28;20201;-44
2023/12/09 03:32:50;;;;;;;187.97;52.20;;;;;;;;;;4973201;28;20465;-44
2023/12/09 03:35:16;;;;;;;187.73;52.50;;;;;;;;;;4955016;28;20422;-44
2023/12/09 03:37:42;;;;;;;183.17;50.80;;;;;;;;;;4968050;28;20911;-43
2023/12/09 03:40:10;;;;;;;185.80;51.60;;;;;;;;;;4962986;28;20444;-43
2023/12/09 03:42:36;;;;;;;185.18;50.83;;;;;;;;;;4960094;28;20465;-44
2023/12/09 03:45:01;;;;;;;185.13;53.80;;;;;;;;;;4970499;28;20197;-44
2023/12/09 03:47:27;;;;;;;171.17;50.00;;;;;;;;;;4953902;28;20412;-44
2023/12/09 03:49:53;;;;;;;182.03;51.47;;;;;;;;;;4971146;28;20445;-44
2023/12/09 03:52:19;;;;;;;182.97;52.13;;;;;;;;;;4959083;28;20466;-43
2023/12/09 03:54:45;;;;;;;174.90;51.57;;;;;;;;;;4963380;28;20418;-44
2023/12/09 03:57:13;;;;;;;173.15;51.40;;;;;;;;;;4972448;28;20416;-44
2023/12/09 03:59:40;;;;;;;184.52;52.60;;;;;;;;;;4970314;28;20191;-43
2023/12/09 04:02:05;;;;;;;186.98;52.85;;;;;;;;;;4953572;28;20240;-44
2023/12/09 04:04:31;;;;;;;185.40;51.50;;;;;;;;;;4971072;28;20184;-43
2023/12/09 04:06:57;;;;;;;186.03;51.20;;;;;;;;;;4959473;28;20434;-44
2023/12/09 04:09:24;;;;;;;186.07;50.87;;;;;;;;;;4962727;28;20478;-43
2023/12/09 04:11:50;;;;;;;185.35;50.38;;;;;;;;;;4967052;28;20478;-43
2023/12/09 04:14:16;;;;;;;188.63;52.87;;;;;;;;;;4954937;28;20177;-43
2023/12/09 04:16:42;;;;;;;185.17;50.97;;;;;;;;;;4972937;28;20480;-44
2023/12/09 04:19:08;;;;;;;184.30;51.72;;;;;;;;;;4955157;28;20431;-43
2023/12/09 04:21:34;;;;;;;185.77;51.15;;;;;;;;;;4966558;28;20178;-44
2023/12/09 04:24:00;;;;;;;187.57;53.87;;;;;;;;;;4963440;28;20279;-43
2023/12/09 04:26:27;;;;;;;182.07;50.65;;;;;;;;;;4958540;28;20417;-44
2023/12/09 04:28:53;;;;;;;185.77;51.80;;;;;;;;;;4971026;28;20181;-44
2023/12/09 04:31:19;;;;;;;176.98;51.78;;;;;;;;;;4953739;28;20404;-44
2023/12/09 04:33:45;;;;;;;180.60;51.30;;;;;;;;;;4969818;28;20257;-43
2023/12/09 04:36:11;;;;;;;181.50;51.67;;;;;;;;;;4962653;28;20407;-44
2023/12/09 04:38:37;;;;;;;180.68;52.53;;;;;;;;;;4965248;28;20175;-43
2023/12/09 04:41:04;;;;;;;177.70;50.90;;;;;;;;;;4971461;28;20550;-43
2023/12/09 04:43:30;;;;;;;177.18;50.50;;;;;;;;;;4957688;28;20179;-44
2023/12/09 04:45:56;;;;;;;173.30;49.37;;;;;;;;;;4976314;28;20170;-43
2023/12/09 04:48:22;;;;;;;178.10;54.45;;;;;;;;;;4959542;28;20418;-43
2023/12/09 04:50:48;;;;;;;172.47;49.77;;;;;;;;;;4968913;28;20206;-44
2023/12/09 04:53:14;;;;;;;173.50;51.42;;;;;;;;;;4967465;28;20955;-44
2023/12/09 04:55:40;;;;;;;173.90;50.53;;;;;;;;;;4964737;28;20175;-44
2023/12/09 04:58:06;;;;;;;164.90;51.22;;;;;;;;;;4975625;28;20253;-43
2023/12/09 05:00:32;;;;;;;167.77;50.80;;;;;;;;;;4956560;28;20703;-44
2023/12/09 05:02:58;;;;;;;172.77;51.57;;;;;;;;;;4972209;28;20806;-44
2023/12/09 05:05:25;;;;;;;168.63;51.33;;;;;;;;;;4964046;28;20419;-44
2023/12/09 05:07:51;;;;;;;171.23;50.40;;;;;;;;;;4964258;28;20421;-43
2023/12/09 05:10:18;;;;;;;178.90;53.10;;;;;;;;;;4971459;28;20203;-44
2023/12/09 05:12:44;;;;;;;181.32;52.45;;;;;;;;;;4956441;28;20866;-44
2023/12/09 05:15:10;;;;;;;180.15;51.35;;;;;;;;;;4975733;28;20263;-44
2023/12/09 05:17:36;;;;;;;181.50;52.80;;;;;;;;;;4960085;28;20170;-44
2023/12/09 05:20:04;;;;;;;180.80;52.00;;;;;;;;;;4967519;28;20571;-44
2023/12/09 05:22:30;;;;;;;179.38;51.67;;;;;;;;;;4967699;28;20426;-44
2023/12/09 05:24:56;;;;;;;178.60;51.83;;;;;;;;;;4959933;28;20182;-44
2023/12/09 05:27:21;;;;;;;174.50;50.77;;;;;;;;;;4975421;28;20441;-44
2023/12/09 05:29:47;;;;;;;172.97;50.77;;;;;;;;;;4956104;28;20434;-44
2023/12/09 05:32:13;;;;;;;174.97;51.57;;;;;;;;;;4971133;28;20507;-43
2023/12/09 05:34:39;;;;;;;174.03;50.77;;;;;;;;;;4964083;28;20496;-44
2023/12/09 05:37:05;;;;;;;175.03;51.70;;;;;;;;;;4962926;28;20512;-44
2023/12/09 05:39:31;;;;;;;173.97;50.43;;;;;;;;;;4971749;28;20453;-43
2023/12/09 05:41:57;;;;;;;173.80;50.70;;;;;;;;;;4956115;28;20464;-43
2023/12/09 05:44:23;;;;;;;175.25;50.53;;;;;;;;;;4974300;28;20406;-44
2023/12/09 05:46:49;;;;;;;174.90;50.80;;;;;;;;;;4960369;28;20176;-44
2023/12/09 05:49:15;;;;;;;177.07;51.80;;;;;;;;;;4965910;28;20456;-44
2023/12/09 05:51:42;;;;;;;168.98;49.40;;;;;;;;;;4968280;28;20622;-43
2023/12/09 05:54:08;;;;;;;176.30;51.83;;;;;;;;;;4958119;28;20213;-43
2023/12/09 05:56:34;;;;;;;173.63;50.58;;;;;;;;;;4975111;28;20180;-44
2023/12/09 05:59:00;;;;;;;172.57;50.13;;;;;;;;;;4974068;28;20233;-44
2023/12/09 06:01:26;;;;;;;171.57;48.97;;;;;;;;;;4960802;28;20504;-43
2023/12/09 06:03:52;;;;;;;171.80;50.87;;;;;;;;;;4965673;28;20420;-43
2023/12/09 06:06:18;;;;;;;172.60;51.40;;;;;;;;;;4968299;28;20446;-44
2023/12/09 06:08:44;;;;;;;173.10;51.63;;;;;;;;;;4957165;28;20396;-43
2023/12/09 06:11:10;;;;;;;163.33;49.10;;;;;;;;;;4974754;28;20925;-44
2023/12/09 06:13:36;;;;;;;158.20;48.65;;;;;;;;;;4956862;28;20459;-43
2023/12/09 06:16:02;;;;;;;159.37;49.40;;;;;;;;;;4968768;28;20174;-44
2023/12/09 06:18:28;;;;;;;161.95;51.67;;;;;;;;;;4964526;28;20402;-44
2023/12/09 06:20:54;;;;;;;165.27;48.40;;;;;;;;;;4960223;28;20569;-44
2023/12/09 06:23:21;;;;;;;162.47;49.90;;;;;;;;;;4972756;28;20482;-44
2023/12/09 06:25:48;;;;;;;155.43;49.25;;;;;;;;;;4955158;28;20406;-44
2023/12/09 06:28:14;;;;;;;153.63;50.33;;;;;;;;;;4971976;28;20271;-44
2023/12/09 06:30:40;;;;;;;172.52;49.45;;;;;;;;;;4960777;28;20883;-44
2023/12/09 06:33:06;;;;;;;170.32;50.83;;;;;;;;;;4964084;28;20208;-43
2023/12/09 06:35:31;;;;;;;166.23;50.77;;;;;;;;;;4969052;28;20172;-43
2023/12/09 06:37:57;;;;;;;169.77;50.13;;;;;;;;;;4955971;28;20406;-43
2023/12/09 06:40:23;;;;;;;175.67;52.10;;;;;;;;;;4973895;28;20420;-43
2023/12/09 06:42:49;;;;;;;172.68;51.35;;;;;;;;;;4957132;28;20414;-44
2023/12/09 06:45:16;;;;;;;176.80;52.10;;;;;;;;;;4967381;28;20551;-43
2023/12/09 06:47:42;;;;;;;175.15;50.75;;;;;;;;;;4965134;28;20413;-44
2023/12/09 06:50:08;;;;;;;175.60;51.08;;;;;;;;;;4959035;28;20202;-43
2023/12/09 06:52:34;;;;;;;178.07;51.80;;;;;;;;;;4972880;28;20194;-44
2023/12/09 06:55:00;;;;;;;177.00;50.30;;;;;;;;;;4957897;28;20902;-44
2023/12/09 06:57:27;;;;;;;181.65;52.35;;;;;;;;;;4972621;28;20975;-43
2023/12/09 06:59:52;;;;;;;180.32;51.17;;;;;;;;;;4961008;28;20694;-43
2023/12/09 07:02:19;;;;;;;178.50;50.30;;;;;;;;;;4962569;28;20197;-43
2023/12/09 07:04:45;;;;;;;180.10;50.67;;;;;;;;;;4969893;28;20421;-44
2023/12/09 07:07:11;;;;;;;182.10;51.90;;;;;;;;;;4954296;28;20189;-43
2023/12/09 07:09:37;;;;;;;203.97;70.20;;;;;;;;;;4971016;28;20516;-44
2023/12/09 07:12:03;;;;;;;184.37;55.37;;;;;;;;;;4981099;28;20421;-43
2023/12/09 07:14:29;;;;;;;178.63;49.85;;;;;;;;;;4983969;28;20468;-43
2023/12/09 07:16:55;;;;;;;181.00;52.37;;;;;;;;;;4983537;28;20179;-43
2023/12/09 07:19:21;;;;;;;176.32;50.55;;;;;;;;;;4976782;28;20436;-43
2023/12/09 07:21:47;;;;;;;177.03;51.17;;;;;;;;;;4985119;28;20182;-43
2023/12/09 07:24:13;;;;;;;166.10;50.20;;;;;;;;;;4983982;28;20916;-43
2023/12/09 07:26:39;;;;;;;180.23;51.75;;;;;;;;;;4982689;28;20203;-43
2023/12/09 07:29:07;;;;;;;177.90;50.20;;;;;;;;;;4987935;28;20227;-43
2023/12/09 07:31:34;;;;;;;180.75;50.88;;;;;;;;;;4981191;28;20415;-43
2023/12/09 07:33:59;;;;;;;176.20;50.60;;;;;;;;;;4982196;28;20206;-43
2023/12/09 07:36:26;;;;;;;159.10;51.10;;;;;;;;;;4981053;28;20673;-43
2023/12/09 07:38:52;;;;;;;162.02;51.50;;;;;;;;;;4986613;28;20439;-43
2023/12/09 07:41:18;;;;;;;172.60;52.23;;;;;;;;;;4973024;28;20202;-43
2023/12/09 07:43:44;;;;;;;176.17;52.13;;;;;;;;;;4980409;28;20414;-43
2023/12/09 07:46:10;;;;;;;180.80;56.00;;;;;;;;;;4982149;28;20410;-44
2023/12/09 07:48:36;;;;;;;186.40;58.17;;;;;;;;;;4980878;28;20415;-44
2023/12/09 07:51:02;;;;;;;185.48;55.88;;;;;;;;;;4981953;28;20439;-43
2023/12/09 07:53:29;;;;;;;186.88;57.35;;;;;;;;;;4985289;28;20199;-43
2023/12/09 07:55:57;;;;;;;187.25;57.63;;;;;;;;;;4985310;28;20221;-43
2023/12/09 07:58:24;;;;;;;189.93;59.38;;;;;;;;;;4979523;28;20178;-43
2023/12/09 08:00:50;;;;;;;184.15;58.90;;;;;;;;;;4977745;28;20224;-44
2023/12/09 08:03:15;;;;;;;181.15;56.13;;;;;;;;;;4983854;28;20229;-43
2023/12/09 08:05:41;;;;;;;183.10;57.30;;;;;;;;;;4983553;28;20266;-43
2023/12/09 08:08:08;;;;;;;186.50;57.35;;;;;;;;;;4983144;28;20413;-44
2023/12/09 08:10:33;;;;;;;184.20;54.45;;;;;;;;;;4984556;28;20291;-43
2023/12/09 08:12:59;;;;;;;183.47;53.63;;;;;;;;;;4987660;28;20293;-43
2023/12/09 08:15:26;;;;;;;186.98;55.63;;;;;;;;;;4982382;28;20406;-43
2023/12/09 08:17:52;;;;;;;181.02;54.40;;;;;;;;;;4988006;28;20186;-43
2023/12/09 08:20:18;;;;;;;187.43;55.90;;;;;;;;;;4977576;28;20733;-43
2023/12/09 08:22:44;;;;;;;190.43;57.03;;;;;;;;;;4985614;28;20401;-43
2023/12/09 08:25:10;;;;;;;188.23;54.93;;;;;;;;;;4986992;28;20175;-44
2023/12/09 08:27:38;;;;;;;190.40;55.30;;;;;;;;;;4983738;28;20912;-43
2023/12/09 08:30:04;;;;;;;187.93;56.22;;;;;;;;;;4985369;28;20465;-43
2023/12/09 08:32:30;;;;;;;183.98;55.40;;;;;;;;;;4984201;28;20226;-43
2023/12/09 08:34:57;;;;;;;184.43;57.93;;;;;;;;;;4985558;28;20233;-43
2023/12/09 08:37:25;;;;;;;185.30;55.05;;;;;;;;;;4973027;28;20825;-43
2023/12/09 08:39:53;;;;;;;171.23;53.88;;;;;;;;;;4956773;28;20189;-44
2023/12/09 08:42:19;;;;;;;179.75;57.08;;;;;;;;;;4975730;28;20180;-43
2023/12/09 08:44:44;;;;;;;185.37;55.57;;;;;;;;;;4961140;28;20272;-43
2023/12/09 08:47:10;;;;;;;192.20;59.90;;;;;;;;;;4967532;28;20498;-44
2023/12/09 08:49:36;;;;;;;186.87;57.00;;;;;;;;;;4968896;28;20506;-43
2023/12/09 08:52:02;;;;;;;188.13;56.60;;;;;;;;;;4959598;28;20439;-44
2023/12/09 08:54:28;;;;;;;192.13;58.40;;;;;;;;;;4976091;28;20415;-43
2023/12/09 08:56:54;;;;;;;189.67;55.93;;;;;;;;;;4975818;28;20475;-44
2023/12/09 08:59:20;;;;;;;192.53;57.10;;;;;;;;;;4961113;28;20445;-43
2023/12/09 09:01:47;;;;;;;191.63;59.10;;;;;;;;;;4966942;28;20521;-44
2023/12/09 09:04:13;;;;;;;193.80;60.10;;;;;;;;;;4969262;28;20487;-43
2023/12/09 09:06:39;;;;;;;189.67;57.40;;;;;;;;;;4958992;28;20186;-44
2023/12/09 09:09:05;;;;;;;191.47;57.80;;;;;;;;;;4975497;28;20432;-43
2023/12/09 09:11:31;;;;;;;194.70;61.80;;;;;;;;;;4957764;28;20420;-43
2023/12/09 09:13:57;;;;;;;196.77;63.17;;;;;;;;;;4970141;28;20479;-43
2023/12/09 09:16:23;;;;;;;192.52;60.35;;;;;;;;;;4965612;28;20410;-44
2023/12/09 09:18:49;;;;;;;196.90;61.30;;;;;;;;;;4961850;28;20642;-43
2023/12/09 09:21:16;;;;;;;198.40;61.90;;;;;;;;;;4972890;28;20889;-44
2023/12/09 09:23:42;;;;;;;195.68;61.15;;;;;;;;;;4956309;28;20778;-44
2023/12/09 09:26:08;;;;;;;195.87;62.73;;;;;;;;;;4973556;28;20177;-44
2023/12/09 09:28:34;;;;;;;195.35;63.67;;;;;;;;;;4961540;28;20441;-43
2023/12/09 09:31:00;;;;;;;194.93;63.77;;;;;;;;;;4956615;28;20674;-43
2023/12/09 09:33:26;;;;;;;195.10;62.70;;;;;;;;;;4961489;28;20465;-43
2023/12/09 09:35:54;;;;;;;202.20;67.73;;;;;;;;;;4973705;28;20405;-43
2023/12/09 09:38:20;;;;;;;181.98;64.63;;;;;;;;;;4974121;28;20424;-44
2023/12/09 09:40:46;;;;;;;183.50;63.58;;;;;;;;;;4957593;28;20212;-44
2023/12/09 09:43:26;;;;;;;179.32;63.28;;;;;;;;;;4980877;28;20658;-43
2023/12/09 09:45:53;;;;;;;171.60;63.33;;;;;;;;;;4980143;28;20216;-43
2023/12/09 09:48:23;;;;;;;173.98;67.38;;;;;;;;;;4988123;28;20232;-44
2023/12/09 09:50:52;;;;;;;176.05;66.07;;;;;;;;;;4981685;28;20197;-44
2023/12/09 09:53:23;;;;;;;176.48;65.15;;;;;;;;;;4984691;28;20280;-43
2023/12/09 09:55:49;;;;;;;161.45;59.80;;;;;;;;;;4990916;28;20696;-43
2023/12/09 09:58:16;;;;;;;114.07;57.88;;;;;;;;;;4981634;28;20178;-43
2023/12/09 10:00:42;;;;;;;121.57;54.08;;;;;;;;;;4988321;28;20189;-43
2023/12/09 10:03:08;;;;;;;125.00;55.90;;;;;;;;;;4976345;28;20212;-43
2023/12/09 10:05:34;;;;;;;175.27;64.07;;;;;;;;;;4961582;28;20793;-44
2023/12/09 10:08:00;;;;;;;175.38;61.13;;;;;;;;;;4964269;28;20192;-44
2023/12/09 10:10:27;;;;;;;176.45;62.85;;;;;;;;;;4969241;28;20202;-44
2023/12/09 10:12:53;;;;;;;180.20;61.50;;;;;;;;;;4956382;28;20202;-43
2023/12/09 10:15:19;;;;;;;180.93;62.70;;;;;;;;;;4974699;28;20243;-43
2023/12/09 10:17:45;;;;;;;181.17;60.73;;;;;;;;;;4957846;28;20449;-43
2023/12/09 10:20:11;;;;;;;199.50;67.60;;;;;;;;;;4967092;28;20440;-43
2023/12/09 10:22:38;;;;;;;193.32;60.60;;;;;;;;;;4965802;28;20421;-43
2023/12/09 10:25:04;;;;;;;195.32;60.60;;;;;;;;;;4959718;28;20564;-43
2023/12/09 10:27:30;;;;;;;193.25;60.35;;;;;;;;;;4973562;28;20174;-43
2023/12/09 10:29:56;;;;;;;194.67;60.87;;;;;;;;;;4954851;28;20224;-44
2023/12/09 10:32:23;;;;;;;196.50;60.42;;;;;;;;;;4970165;28;20452;-43
2023/12/09 10:34:49;;;;;;;194.38;60.10;;;;;;;;;;4961712;28;20188;-43
2023/12/09 10:37:16;;;;;;;205.88;69.80;;;;;;;;;;4955018;28;20264;-43
2023/12/09 10:39:45;;;;;;;196.63;60.15;;;;;;;;;;4969145;28;20205;-43
2023/12/09 10:42:11;;;;;;;194.35;58.50;;;;;;;;;;4955639;28;20170;-43
2023/12/09 10:44:37;;;;;;;193.27;57.50;;;;;;;;;;4974145;28;20231;-43
2023/12/09 10:47:04;;;;;;;195.05;60.05;;;;;;;;;;4957312;28;20924;-43
2023/12/09 10:49:33;;;;;;;194.48;59.92;;;;;;;;;;4966485;28;20224;-43
2023/12/09 10:51:59;;;;;;;195.27;60.40;;;;;;;;;;4973839;28;20189;-43
2023/12/09 10:54:25;;;;;;;195.30;59.30;;;;;;;;;;4968755;28;20205;-43
2023/12/09 10:56:53;;;;;;;198.15;61.97;;;;;;;;;;4972153;28;20491;-43
2023/12/09 10:59:19;;;;;;;194.63;57.78;;;;;;;;;;4973568;28;20735;-43
2023/12/09 11:01:46;;;;;;;198.10;61.53;;;;;;;;;;4957099;28;20201;-43
2023/12/09 11:04:15;;;;;;;194.38;59.25;;;;;;;;;;4967028;28;20276;-43
2023/12/09 11:06:46;;;;;;;195.32;59.88;;;;;;;;;;4964436;28;20193;-43
2023/12/09 11:09:13;;;;;;;197.20;62.83;;;;;;;;;;4959658;28;20201;-43
2023/12/09 11:11:42;;;;;;;196.25;58.08;;;;;;;;;;4971391;28;20187;-43
2023/12/09 11:14:11;;;;;;;199.32;61.30;;;;;;;;;;4953950;28;20698;-43
2023/12/09 11:16:42;;;;;;;196.80;57.72;;;;;;;;;;4972162;28;20205;-44
2023/12/09 11:19:13;;;;;;;196.45;59.03;;;;;;;;;;4958301;28;20198;-43
2023/12/09 11:21:43;;;;;;;197.30;62.20;;;;;;;;;;4965567;28;20642;-43
2023/12/09 11:24:09;;;;;;;196.90;60.28;;;;;;;;;;4965259;28;20278;-43
2023/12/09 11:26:36;;;;;;;196.07;58.25;;;;;;;;;;4957927;28;20185;-43
2023/12/09 11:29:03;;;;;;;198.55;60.60;;;;;;;;;;4972561;28;20192;-43
2023/12/09 11:31:36;;;;;;;199.90;61.35;;;;;;;;;;4953950;28;20233;-43
2023/12/09 11:34:03;;;;;;;197.30;59.53;;;;;;;;;;4970541;28;20233;-43
2023/12/09 11:36:30;;;;;;;197.80;61.15;;;;;;;;;;4960184;28;20174;-43
2023/12/09 11:38:56;;;;;;;202.95;64.75;;;;;;;;;;4962367;28;20517;-43
2023/12/09 11:41:22;;;;;;;197.73;62.00;;;;;;;;;;4965807;28;20186;-43
2023/12/09 11:43:48;;;;;;;194.73;60.55;;;;;;;;;;4954321;28;20174;-43
2023/12/09 11:46:14;;;;;;;193.25;60.05;;;;;;;;;;4973018;28;20199;-43
2023/12/09 11:48:40;;;;;;;195.60;61.00;;;;;;;;;;4954856;28;20184;-43
2023/12/09 11:51:07;;;;;;;197.20;61.37;;;;;;;;;;4966170;28;20416;-43
2023/12/09 11:53:33;;;;;;;197.85;61.10;;;;;;;;;;4971802;28;20452;-43
2023/12/09 11:55:59;;;;;;;195.33;59.67;;;;;;;;;;4972398;28;20231;-43
2023/12/09 11:58:28;;;;;;;203.07;66.07;;;;;;;;;;4971895;28;20419;-43
2023/12/09 12:00:54;;;;;;;196.60;61.15;;;;;;;;;;4953643;28;20425;-43
2023/12/09 12:03:20;;;;;;;196.87;59.87;;;;;;;;;;4970033;28;20239;-43
2023/12/09 12:05:46;;;;;;;195.17;58.77;;;;;;;;;;4960356;28;20778;-43
2023/12/09 12:08:15;;;;;;;199.90;65.03;;;;;;;;;;4961798;28;20499;-44
2023/12/09 12:10:41;;;;;;;197.77;61.22;;;;;;;;;;4967741;28;20845;-43
2023/12/09 12:13:07;;;;;;;198.07;60.65;;;;;;;;;;4954239;28;20198;-43
2023/12/09 12:15:34;;;;;;;197.98;60.58;;;;;;;;;;4972840;28;20196;-43
2023/12/09 12:18:01;;;;;;;201.00;62.63;;;;;;;;;;4956270;28;20178;-43
2023/12/09 12:20:27;;;;;;;199.70;61.13;;;;;;;;;;4965708;28;20197;-43
2023/12/09 12:22:53;;;;;;;199.20;60.97;;;;;;;;;;4963922;28;20216;-44
2023/12/09 12:25:19;;;;;;;200.82;63.55;;;;;;;;;;4957975;28;20413;-43
2023/12/09 12:27:45;;;;;;;205.23;64.93;;;;;;;;;;4970885;28;20178;-43
2023/12/09 12:30:13;;;;;;;199.23;60.00;;;;;;;;;;4966281;28;20513;-44
2023/12/09 12:32:39;;;;;;;204.00;64.93;;;;;;;;;;4970844;28;20673;-43
2023/12/09 12:35:08;;;;;;;202.30;61.28;;;;;;;;;;4958570;28;20233;-43
2023/12/09 12:37:34;;;;;;;201.75;61.85;;;;;;;;;;4961841;28;20180;-43
2023/12/09 12:40:02;;;;;;;205.85;64.00;;;;;;;;;;4965724;28;20617;-43
2023/12/09 12:42:29;;;;;;;204.25;65.03;;;;;;;;;;4954175;28;20170;-43
2023/12/09 12:44:55;;;;;;;205.52;64.38;;;;;;;;;;4972612;28;20178;-43
2023/12/09 12:47:21;;;;;;;199.93;59.83;;;;;;;;;;4968180;28;20189;-44
2023/12/09 12:49:47;;;;;;;205.20;65.23;;;;;;;;;;4959463;28;20573;-43
2023/12/09 12:52:14;;;;;;;204.40;62.03;;;;;;;;;;4961602;28;20436;-43
2023/12/09 12:54:40;;;;;;;204.20;62.40;;;;;;;;;;4967982;28;20426;-43
2023/12/09 12:57:06;;;;;;;205.32;63.50;;;;;;;;;;4973229;28;20168;-43
2023/12/09 12:59:31;;;;;;;203.03;62.80;;;;;;;;;;4975685;28;20189;-43
2023/12/09 13:01:59;;;;;;;203.17;61.17;;;;;;;;;;4959724;28;20524;-43
2023/12/09 13:04:25;;;;;;;199.65;58.83;;;;;;;;;;4968742;28;20428;-43
2023/12/09 13:06:51;;;;;;;201.00;59.90;;;;;;;;;;4967547;28;20545;-43
2023/12/09 13:09:17;;;;;;;201.98;61.35;;;;;;;;;;4960521;28;20498;-43
2023/12/09 13:11:43;;;;;;;202.57;61.90;;;;;;;;;;4975555;28;20178;-43
2023/12/09 13:14:09;;;;;;;202.27;63.37;;;;;;;;;;4956381;28;20461;-43
2023/12/09 13:16:37;;;;;;;203.97;65.03;;;;;;;;;;4972122;28;20895;-43
2023/12/09 13:19:03;;;;;;;202.85;62.65;;;;;;;;;;4963158;28;20859;-43
2023/12/09 13:21:29;;;;;;;204.07;64.30;;;;;;;;;;4964349;28;20169;-43
2023/12/09 13:23:55;;;;;;;201.47;62.20;;;;;;;;;;4971719;28;20509;-43
2023/12/09 13:26:21;;;;;;;200.80;63.63;;;;;;;;;;4956415;28;20465;-43
2023/12/09 13:28:47;;;;;;;206.95;68.07;;;;;;;;;;4974657;28;20463;-42
2023/12/09 13:31:15;;;;;;;205.97;67.77;;;;;;;;;;4959790;28;20198;-43
2023/12/09 13:33:41;;;;;;;205.20;65.88;;;;;;;;;;4966785;28;20460;-43
2023/12/09 13:36:07;;;;;;;204.27;64.87;;;;;;;;;;4966980;28;20665;-43
2023/12/09 13:38:33;;;;;;;205.05;65.15;;;;;;;;;;4958842;28;20455;-43
2023/12/09 13:40:59;;;;;;;201.00;60.77;;;;;;;;;;4974308;28;20749;-43
2023/12/09 13:43:25;;;;;;;219.43;73.60;;;;;;;;;;4955346;28;20968;-43
2023/12/09 13:45:51;;;;;;;202.13;61.23;;;;;;;;;;4972480;28;20193;-43
2023/12/09 13:48:17;;;;;;;205.87;63.50;;;;;;;;;;4963464;28;20912;-44
2023/12/09 13:50:43;;;;;;;201.33;59.87;;;;;;;;;;4962630;28;20448;-43
2023/12/09 13:53:09;;;;;;;205.50;64.15;;;;;;;;;;4970068;28;20461;-43
2023/12/09 13:55:35;;;;;;;202.03;60.03;;;;;;;;;;4963669;28;20193;-43
2023/12/09 13:58:01;;;;;;;206.32;64.15;;;;;;;;;;4974300;28;20429;-43
2023/12/09 14:00:27;;;;;;;203.60;59.93;;;;;;;;;;4959866;28;20194;-43